Time;durP1;ratioP1;P1;durP2;ratioP2;P2;SDS_P1;SDS_P2;PMS_P1;PMS_P2;Temp;Humidity;BMP_temperature;BMP_pressure;BME280_temperature;BME280_humidity;BME280_pressure;Samples;Min_cycle;Max_cycle;Signal;HPM_P1;HPM_P2
2024/01/05 00:01:43;;;;;;;5.25;1.55;;;;;;;;;;5016441;28;20412;-22
2024/01/05 00:04:09;;;;;;;2.65;1.55;;;;;;;;;;5015966;28;20168;-22
2024/01/05 00:06:38;;;;;;;6.22;1.42;;;;;;;;;;5016388;28;20021;-23
2024/01/05 00:09:04;;;;;;;2.10;1.10;;;;;;;;;;5016077;28;20021;-22
2024/01/05 00:11:30;;;;;;;3.38;1.20;;;;;;;;;;5016318;28;20050;-23
2024/01/05 00:13:57;;;;;;;8.85;1.27;;;;;;;;;;5015845;28;20448;-23
2024/01/05 00:16:23;;;;;;;5.07;1.55;;;;;;;;;;5015927;28;20038;-22
2024/01/05 00:18:50;;;;;;;4.03;1.50;;;;;;;;;;5015947;28;20104;-23
2024/01/05 00:21:23;;;;;;;2.65;1.33;;;;;;;;;;5015767;28;20030;-24
2024/01/05 00:23:50;;;;;;;6.00;1.55;;;;;;;;;;5015810;28;20021;-23
2024/01/05 00:26:16;;;;;;;4.22;1.30;;;;;;;;;;5016046;28;20352;-22
2024/01/05 00:28:43;;;;;;;1.77;1.25;;;;;;;;;;5015987;28;20311;-24
2024/01/05 00:31:10;;;;;;;10.65;3.92;;;;;;;;;;5015556;28;20045;-22
2024/01/05 00:33:37;;;;;;;4.32;1.45;;;;;;;;;;5015590;28;20080;-23
2024/01/05 00:36:04;;;;;;;1.98;1.05;;;;;;;;;;5015590;28;20033;-22
2024/01/05 00:38:30;;;;;;;3.33;1.10;;;;;;;;;;5015602;28;20040;-22
2024/01/05 00:40:56;;;;;;;2.13;1.00;;;;;;;;;;5015687;28;20026;-21
2024/01/05 00:43:22;;;;;;;1.95;1.00;;;;;;;;;;5015486;28;20026;-23
2024/01/05 00:45:48;;;;;;;4.05;1.20;;;;;;;;;;5015465;28;20029;-23
2024/01/05 00:48:14;;;;;;;3.35;2.08;;;;;;;;;;5015689;28;20018;-24
2024/01/05 00:50:41;;;;;;;2.30;1.20;;;;;;;;;;5015906;28;20029;-23
2024/01/05 00:53:07;;;;;;;3.60;1.15;;;;;;;;;;5015253;28;20025;-23
2024/01/05 00:55:33;;;;;;;2.35;1.25;;;;;;;;;;5015602;28;20048;-22
2024/01/05 00:57:59;;;;;;;3.55;1.08;;;;;;;;;;5015302;28;20057;-23
2024/01/05 01:00:25;;;;;;;4.28;0.93;;;;;;;;;;5015421;28;20029;-23
2024/01/05 01:02:52;;;;;;;1.83;0.98;;;;;;;;;;5014919;28;20117;-23
2024/01/05 01:05:18;;;;;;;4.20;1.27;;;;;;;;;;5015452;28;20029;-23
2024/01/05 01:07:44;;;;;;;2.00;1.42;;;;;;;;;;5015138;28;20145;-23
2024/01/05 01:10:10;;;;;;;2.38;1.40;;;;;;;;;;5015386;28;20045;-22
2024/01/05 01:12:37;;;;;;;2.03;0.82;;;;;;;;;;5014917;28;20025;-22
2024/01/05 01:15:03;;;;;;;2.70;1.20;;;;;;;;;;5015046;28;20356;-22
2024/01/05 01:17:31;;;;;;;2.47;1.08;;;;;;;;;;5015225;28;20141;-22
2024/01/05 01:19:57;;;;;;;6.47;2.05;;;;;;;;;;5014887;28;20048;-21
2024/01/05 01:22:23;;;;;;;1.80;1.10;;;;;;;;;;5015623;28;20453;-24
2024/01/05 01:24:49;;;;;;;3.22;1.10;;;;;;;;;;5014919;28;20061;-22
2024/01/05 01:27:19;;;;;;;1.45;1.10;;;;;;;;;;5014941;28;20113;-22
2024/01/05 01:29:45;;;;;;;4.53;1.85;;;;;;;;;;5015139;28;20026;-22
2024/01/05 01:32:11;;;;;;;2.08;1.10;;;;;;;;;;5014768;28;20033;-21
2024/01/05 01:34:40;;;;;;;1.75;1.00;;;;;;;;;;5014783;28;20030;-23
2024/01/05 01:37:06;;;;;;;4.18;1.40;;;;;;;;;;5015051;28;20065;-23
2024/01/05 01:39:33;;;;;;;2.65;1.05;;;;;;;;;;5014983;28;20105;-23
2024/01/05 01:42:00;;;;;;;2.03;1.17;;;;;;;;;;5014694;28;20026;-22
2024/01/05 01:44:27;;;;;;;2.47;1.20;;;;;;;;;;5018853;28;20026;-23
2024/01/05 01:46:54;;;;;;;2.53;1.27;;;;;;;;;;5018801;28;20022;-22
2024/01/05 01:49:21;;;;;;;2.35;1.10;;;;;;;;;;5018765;28;20361;-23
2024/01/05 01:51:47;;;;;;;1.75;1.08;;;;;;;;;;5018654;28;20033;-24
2024/01/05 01:54:13;;;;;;;4.70;1.02;;;;;;;;;;5018652;28;20030;-21
2024/01/05 01:56:40;;;;;;;3.10;1.00;;;;;;;;;;5018859;28;20048;-22
2024/01/05 01:59:06;;;;;;;2.35;1.35;;;;;;;;;;5018807;28;20030;-23
2024/01/05 02:01:33;;;;;;;2.80;1.00;;;;;;;;;;5018439;28;20030;-21
2024/01/05 02:04:00;;;;;;;3.05;1.58;;;;;;;;;;5018250;28;20440;-24
2024/01/05 02:06:26;;;;;;;1.63;0.93;;;;;;;;;;5018415;28;20022;-23
2024/01/05 02:08:53;;;;;;;1.73;1.33;;;;;;;;;;5018387;28;20105;-23
2024/01/05 02:11:19;;;;;;;2.00;1.00;;;;;;;;;;5018623;28;20050;-22
2024/01/05 02:13:48;;;;;;;3.50;1.38;;;;;;;;;;5018214;28;20069;-22
2024/01/05 02:16:14;;;;;;;2.20;1.40;;;;;;;;;;5018462;28;20029;-24
2024/01/05 02:18:40;;;;;;;4.35;1.30;;;;;;;;;;5018749;28;20025;-22
2024/01/05 02:21:07;;;;;;;2.28;1.20;;;;;;;;;;5018006;28;20026;-23
2024/01/05 02:23:33;;;;;;;3.72;1.20;;;;;;;;;;5018029;28;20045;-23
2024/01/05 02:26:00;;;;;;;3.38;1.00;;;;;;;;;;5018073;28;20022;-23
2024/01/05 02:28:27;;;;;;;3.72;1.20;;;;;;;;;;5017973;28;20025;-23
2024/01/05 02:30:57;;;;;;;4.20;0.90;;;;;;;;;;5018192;28;20038;-23
2024/01/05 02:33:23;;;;;;;2.55;1.10;;;;;;;;;;5017893;28;20029;-23
2024/01/05 02:35:52;;;;;;;2.55;1.08;;;;;;;;;;5018195;28;20348;-21
2024/01/05 02:38:18;;;;;;;4.47;1.35;;;;;;;;;;5018361;28;20452;-22
2024/01/05 02:40:44;;;;;;;1.98;1.48;;;;;;;;;;5017736;28;20041;-22
2024/01/05 02:43:10;;;;;;;3.70;1.33;;;;;;;;;;5017697;28;20026;-23
2024/01/05 02:45:37;;;;;;;3.55;1.67;;;;;;;;;;5017983;28;20022;-23
2024/01/05 02:48:03;;;;;;;1.77;1.13;;;;;;;;;;5017680;28;20022;-24
2024/01/05 02:50:29;;;;;;;2.17;1.15;;;;;;;;;;5018143;28;20030;-23
2024/01/05 02:52:55;;;;;;;2.67;1.65;;;;;;;;;;5017479;28;20033;-23
2024/01/05 02:55:21;;;;;;;3.22;1.02;;;;;;;;;;5016175;28;20468;-22
2024/01/05 02:57:47;;;;;;;3.50;1.50;;;;;;;;;;5017503;28;20400;-22
2024/01/05 03:00:14;;;;;;;1.35;0.90;;;;;;;;;;5017354;28;20168;-22
2024/01/05 03:02:40;;;;;;;1.63;1.13;;;;;;;;;;5017130;28;20377;-22
2024/01/05 03:05:06;;;;;;;3.83;1.65;;;;;;;;;;5017396;28;20402;-21
2024/01/05 03:07:32;;;;;;;2.13;1.17;;;;;;;;;;5017327;28;20103;-23
2024/01/05 03:09:58;;;;;;;2.15;1.25;;;;;;;;;;5017279;28;20100;-22
2024/01/05 03:12:24;;;;;;;2.45;1.25;;;;;;;;;;5017135;28;20029;-22
2024/01/05 03:14:51;;;;;;;2.92;1.25;;;;;;;;;;5017446;28;20144;-22
2024/01/05 03:17:17;;;;;;;3.20;1.40;;;;;;;;;;5017137;28;20022;-22
2024/01/05 03:19:43;;;;;;;2.35;1.35;;;;;;;;;;5017026;28;20469;-21
2024/01/05 03:22:09;;;;;;;2.58;1.63;;;;;;;;;;5016894;28;20088;-22
2024/01/05 03:24:35;;;;;;;2.00;1.23;;;;;;;;;;5016977;28;20021;-22
2024/01/05 03:27:01;;;;;;;1.58;1.00;;;;;;;;;;5017492;28;20445;-23
2024/01/05 03:29:27;;;;;;;4.63;1.02;;;;;;;;;;5016913;28;20045;-23
2024/01/05 03:31:53;;;;;;;1.42;1.02;;;;;;;;;;5017033;28;20030;-23
2024/01/05 03:34:20;;;;;;;1.55;0.90;;;;;;;;;;5017091;28;20046;-23
2024/01/05 03:36:46;;;;;;;2.25;1.05;;;;;;;;;;5016681;28;20510;-21
2024/01/05 03:39:12;;;;;;;2.92;1.00;;;;;;;;;;5017217;28;20049;-23
2024/01/05 03:41:38;;;;;;;3.42;1.05;;;;;;;;;;5016874;28;20053;-22
2024/01/05 03:44:05;;;;;;;1.55;0.75;;;;;;;;;;5016789;28;20026;-23
2024/01/05 03:46:31;;;;;;;2.38;1.17;;;;;;;;;;5016819;28;20461;-23
2024/01/05 03:48:57;;;;;;;2.42;0.82;;;;;;;;;;5016535;28;20022;-23
2024/01/05 03:51:23;;;;;;;4.28;1.50;;;;;;;;;;5016508;28;20058;-22
2024/01/05 03:53:49;;;;;;;2.58;1.30;;;;;;;;;;5016376;28;20369;-22
2024/01/05 03:56:15;;;;;;;4.03;1.73;;;;;;;;;;5016889;28;20022;-22
2024/01/05 03:58:41;;;;;;;2.40;1.17;;;;;;;;;;5016665;28;20511;-22
2024/01/05 04:01:07;;;;;;;1.33;0.90;;;;;;;;;;5016489;28;20080;-23
2024/01/05 04:03:34;;;;;;;2.88;1.45;;;;;;;;;;5016012;28;20050;-22
2024/01/05 04:06:00;;;;;;;4.57;1.60;;;;;;;;;;5015774;28;20043;-22
2024/01/05 04:08:26;;;;;;;1.27;0.98;;;;;;;;;;5016440;28;20029;-23
2024/01/05 04:10:52;;;;;;;2.28;1.23;;;;;;;;;;4998868;28;20040;-22
2024/01/05 04:13:19;;;;;;;1.20;1.00;;;;;;;;;;5015905;28;20045;-23
2024/01/05 04:15:45;;;;;;;1.58;0.93;;;;;;;;;;5015956;28;20092;-22
2024/01/05 04:18:11;;;;;;;1.88;1.17;;;;;;;;;;5016245;28;20022;-23
2024/01/05 04:20:37;;;;;;;3.17;2.08;;;;;;;;;;5016226;28;20030;-22
2024/01/05 04:23:03;;;;;;;2.53;0.90;;;;;;;;;;5015938;28;20026;-23
2024/01/05 04:25:30;;;;;;;1.27;1.05;;;;;;;;;;5015851;28;20108;-22
2024/01/05 04:27:56;;;;;;;1.92;1.10;;;;;;;;;;5016388;28;20095;-23
2024/01/05 04:30:22;;;;;;;1.05;0.90;;;;;;;;;;5015790;28;20033;-22
2024/01/05 04:32:48;;;;;;;3.25;1.45;;;;;;;;;;5015699;28;20026;-23
2024/01/05 04:35:14;;;;;;;1.45;0.93;;;;;;;;;;5015960;28;20030;-22
2024/01/05 04:37:40;;;;;;;1.85;1.00;;;;;;;;;;5015904;28;20092;-23
2024/01/05 04:40:07;;;;;;;2.03;1.05;;;;;;;;;;5015523;28;20096;-23
2024/01/05 04:42:33;;;;;;;1.38;0.98;;;;;;;;;;5015751;28;20021;-23
2024/01/05 04:44:59;;;;;;;2.55;1.55;;;;;;;;;;5015480;28;20022;-22
2024/01/05 04:47:26;;;;;;;1.65;1.33;;;;;;;;;;5015538;28;20037;-21
2024/01/05 04:49:52;;;;;;;1.13;0.88;;;;;;;;;;5015693;28;20045;-22
2024/01/05 04:52:18;;;;;;;2.03;1.27;;;;;;;;;;5015530;28;20125;-23
2024/01/05 04:54:44;;;;;;;1.45;1.00;;;;;;;;;;5015392;28;20156;-22
2024/01/05 04:57:10;;;;;;;1.98;1.00;;;;;;;;;;5015276;28;20026;-23
2024/01/05 04:59:37;;;;;;;1.67;1.13;;;;;;;;;;5015196;28;20042;-23
2024/01/05 05:02:04;;;;;;;2.35;1.17;;;;;;;;;;5015097;28;20030;-22
2024/01/05 05:04:30;;;;;;;2.03;1.48;;;;;;;;;;5015012;28;20065;-21
2024/01/05 05:06:56;;;;;;;0.77;0.77;;;;;;;;;;4997809;28;20030;-24
2024/01/05 05:09:22;;;;;;;1.63;1.30;;;;;;;;;;5015237;28;20373;-23
2024/01/05 05:11:48;;;;;;;4.30;1.08;;;;;;;;;;5015213;28;20061;-23
2024/01/05 05:14:14;;;;;;;1.95;0.82;;;;;;;;;;5014906;28;20032;-23
2024/01/05 05:16:41;;;;;;;1.75;1.10;;;;;;;;;;5014229;28;20040;-22
2024/01/05 05:19:07;;;;;;;2.97;2.20;;;;;;;;;;5014698;28;20095;-22
2024/01/05 05:21:33;;;;;;;1.33;1.05;;;;;;;;;;5014669;28;20026;-24
2024/01/05 05:23:59;;;;;;;1.60;1.00;;;;;;;;;;5014711;28;20033;-21
2024/01/05 05:26:26;;;;;;;5.22;1.23;;;;;;;;;;5014731;28;20533;-22
2024/01/05 05:28:52;;;;;;;4.18;1.10;;;;;;;;;;5014749;28;20053;-22
2024/01/05 05:31:18;;;;;;;3.08;1.23;;;;;;;;;;5014829;28;20105;-22
2024/01/05 05:33:44;;;;;;;1.30;0.90;;;;;;;;;;5014388;28;20041;-23
2024/01/05 05:36:10;;;;;;;1.92;1.17;;;;;;;;;;5014680;28;20073;-23
2024/01/05 05:38:36;;;;;;;2.65;1.10;;;;;;;;;;5015361;28;20041;-22
2024/01/05 05:41:02;;;;;;;2.38;1.00;;;;;;;;;;5014408;28;20029;-21
2024/01/05 05:43:29;;;;;;;1.30;1.02;;;;;;;;;;5014295;28;20022;-22
2024/01/05 05:45:55;;;;;;;1.50;0.77;;;;;;;;;;5014525;28;20346;-22
2024/01/05 05:48:21;;;;;;;2.92;1.55;;;;;;;;;;5014222;28;20117;-24
2024/01/05 05:50:48;;;;;;;3.40;1.20;;;;;;;;;;5014564;28;20069;-22
2024/01/05 05:53:15;;;;;;;6.85;1.27;;;;;;;;;;5014165;28;20026;-24
2024/01/05 05:55:41;;;;;;;5.03;1.10;;;;;;;;;;4997003;28;20088;-23
2024/01/05 05:58:08;;;;;;;1.23;0.90;;;;;;;;;;5014580;28;20022;-23
2024/01/05 06:00:35;;;;;;;4.90;1.10;;;;;;;;;;4996911;28;20026;-23
2024/01/05 06:03:02;;;;;;;3.03;1.15;;;;;;;;;;5014286;28;20054;-23
2024/01/05 06:05:28;;;;;;;3.30;1.10;;;;;;;;;;5014919;28;20110;-22
2024/01/05 06:07:54;;;;;;;2.53;1.17;;;;;;;;;;5014364;28;20044;-23
2024/01/05 06:10:20;;;;;;;3.42;1.67;;;;;;;;;;5014321;28;20453;-22
2024/01/05 06:12:46;;;;;;;3.00;1.35;;;;;;;;;;4997026;28;20456;-22
2024/01/05 06:15:13;;;;;;;1.55;1.00;;;;;;;;;;5014381;28;20061;-22
2024/01/05 06:17:39;;;;;;;1.60;0.88;;;;;;;;;;5014290;28;20030;-22
2024/01/05 06:20:07;;;;;;;1.83;0.90;;;;;;;;;;4996853;28;20088;-23
2024/01/05 06:22:33;;;;;;;1.33;0.90;;;;;;;;;;5014311;28;20057;-23
2024/01/05 06:24:59;;;;;;;5.20;1.70;;;;;;;;;;5014152;28;20353;-22
2024/01/05 06:27:26;;;;;;;10.43;1.20;;;;;;;;;;5014062;28;20022;-23
2024/01/05 06:29:52;;;;;;;1.85;1.20;;;;;;;;;;5016898;28;20022;-22
2024/01/05 06:32:18;;;;;;;2.65;0.90;;;;;;;;;;5017631;28;20410;-22
2024/01/05 06:34:44;;;;;;;5.05;1.13;;;;;;;;;;5017739;28;20032;-22
2024/01/05 06:37:11;;;;;;;3.35;1.40;;;;;;;;;;5017491;28;20026;-22
2024/01/05 06:39:37;;;;;;;6.75;1.48;;;;;;;;;;5017711;28;20310;-27
2024/01/05 06:42:03;;;;;;;4.03;1.15;;;;;;;;;;5017449;28;20022;-23
2024/01/05 06:44:29;;;;;;;2.30;1.00;;;;;;;;;;5017492;28;20022;-22
2024/01/05 06:46:55;;;;;;;1.80;1.27;;;;;;;;;;5017398;28;20022;-23
2024/01/05 06:49:23;;;;;;;3.13;1.83;;;;;;;;;;5017421;28;20146;-22
2024/01/05 06:51:49;;;;;;;3.35;0.93;;;;;;;;;;5017542;28;20361;-21
2024/01/05 06:54:15;;;;;;;7.68;0.85;;;;;;;;;;5017551;28;20037;-23
2024/01/05 06:56:42;;;;;;;3.65;1.17;;;;;;;;;;5017339;28;20457;-22
2024/01/05 06:59:09;;;;;;;2.65;0.80;;;;;;;;;;5017150;28;20046;-22
2024/01/05 07:01:35;;;;;;;1.60;1.40;;;;;;;;;;5017313;28;20033;-22
2024/01/05 07:04:01;;;;;;;1.65;0.93;;;;;;;;;;5016767;28;20109;-22
2024/01/05 07:06:27;;;;;;;4.25;1.25;;;;;;;;;;5016906;28;20022;-22
2024/01/05 07:08:54;;;;;;;10.95;1.45;;;;;;;;;;5017514;28;20034;-22
2024/01/05 07:11:23;;;;;;;3.50;2.13;;;;;;;;;;5017251;28;20030;-21
2024/01/05 07:13:50;;;;;;;7.13;1.15;;;;;;;;;;5017189;28;20036;-26
2024/01/05 07:16:23;;;;;;;5.25;1.25;;;;;;;;;;5016899;28;20026;-22
2024/01/05 07:18:49;;;;;;;3.20;1.00;;;;;;;;;;5016745;28;20029;-24
2024/01/05 07:21:16;;;;;;;2.47;1.15;;;;;;;;;;5016646;28;20425;-23
2024/01/05 07:23:42;;;;;;;3.38;0.93;;;;;;;;;;5016689;28;20026;-23
2024/01/05 07:26:09;;;;;;;2.85;1.30;;;;;;;;;;4999428;28;20149;-24
2024/01/05 07:28:37;;;;;;;1.65;1.35;;;;;;;;;;5016604;28;20026;-23
2024/01/05 07:31:04;;;;;;;2.00;1.02;;;;;;;;;;5016424;28;20121;-23
2024/01/05 07:33:30;;;;;;;3.22;1.15;;;;;;;;;;4999391;28;20092;-25
2024/01/05 07:35:56;;;;;;;2.58;1.52;;;;;;;;;;5016723;28;20026;-22
2024/01/05 07:38:24;;;;;;;5.20;1.10;;;;;;;;;;4999095;28;20139;-23
2024/01/05 07:40:50;;;;;;;4.20;1.55;;;;;;;;;;5015408;28;20030;-23
2024/01/05 07:43:16;;;;;;;1.52;1.17;;;;;;;;;;5016255;28;20022;-22
2024/01/05 07:45:42;;;;;;;3.25;0.82;;;;;;;;;;5016501;28;20018;-23
2024/01/05 07:48:08;;;;;;;10.68;1.48;;;;;;;;;;4999000;28;20065;-22
2024/01/05 07:50:35;;;;;;;3.00;0.93;;;;;;;;;;5016408;28;20105;-22
2024/01/05 07:53:02;;;;;;;7.93;1.30;;;;;;;;;;4999083;28;20038;-22
2024/01/05 07:55:28;;;;;;;5.85;1.30;;;;;;;;;;5016033;28;20029;-23
2024/01/05 07:57:54;;;;;;;6.47;1.40;;;;;;;;;;5016080;28;20030;-23
2024/01/05 08:00:20;;;;;;;4.90;1.30;;;;;;;;;;5016024;28;20361;-24
2024/01/05 08:02:46;;;;;;;5.68;1.50;;;;;;;;;;5015769;28;20053;-23
2024/01/05 08:05:13;;;;;;;7.35;1.25;;;;;;;;;;5016044;28;20096;-22
2024/01/05 08:07:39;;;;;;;5.43;1.38;;;;;;;;;;5015849;28;20425;-22
2024/01/05 08:10:05;;;;;;;3.67;1.08;;;;;;;;;;4998464;28;20590;-22
2024/01/05 08:12:31;;;;;;;18.33;1.63;;;;;;;;;;5015631;28;20041;-23
2024/01/05 08:14:58;;;;;;;5.40;1.05;;;;;;;;;;4998442;28;20030;-22
2024/01/05 08:17:24;;;;;;;7.43;1.63;;;;;;;;;;4998253;28;20107;-23
2024/01/05 08:19:50;;;;;;;4.05;1.45;;;;;;;;;;5015519;28;20088;-25
2024/01/05 08:22:16;;;;;;;1.90;0.90;;;;;;;;;;4998202;28;20037;-22
2024/01/05 08:24:42;;;;;;;2.65;1.00;;;;;;;;;;5015515;28;20084;-23
2024/01/05 08:27:09;;;;;;;9.45;1.67;;;;;;;;;;5015505;28;20053;-22
2024/01/05 08:29:35;;;;;;;10.93;1.80;;;;;;;;;;5015435;28;20105;-21
2024/01/05 08:32:02;;;;;;;3.53;1.10;;;;;;;;;;5015780;28;20033;-21
2024/01/05 08:34:29;;;;;;;5.50;0.88;;;;;;;;;;5015342;28;20026;-22
2024/01/05 08:36:55;;;;;;;1.63;1.20;;;;;;;;;;5015593;28;20352;-24
2024/01/05 08:39:21;;;;;;;1.60;1.10;;;;;;;;;;4998140;28;20033;-23
2024/01/05 08:41:48;;;;;;;2.28;0.95;;;;;;;;;;5015609;28;20465;-24
2024/01/05 08:44:14;;;;;;;3.03;1.10;;;;;;;;;;5015681;28;20439;-25
2024/01/05 08:46:41;;;;;;;2.72;1.60;;;;;;;;;;5015333;28;20361;-22
2024/01/05 08:49:07;;;;;;;7.25;1.10;;;;;;;;;;5015295;28;20113;-21
2024/01/05 08:51:33;;;;;;;4.82;1.55;;;;;;;;;;4998669;28;20034;-24
2024/01/05 08:54:01;;;;;;;9.40;1.35;;;;;;;;;;5015422;28;20037;-22
2024/01/05 08:56:28;;;;;;;3.55;1.10;;;;;;;;;;4997884;28;20056;-24
2024/01/05 08:58:54;;;;;;;5.97;1.20;;;;;;;;;;5015188;28;20022;-24
2024/01/05 09:01:20;;;;;;;5.88;1.52;;;;;;;;;;5015555;28;20283;-23
2024/01/05 09:03:46;;;;;;;3.30;1.17;;;;;;;;;;5014860;28;20058;-22
2024/01/05 09:06:12;;;;;;;4.25;1.17;;;;;;;;;;5015338;28;20024;-23
2024/01/05 09:08:38;;;;;;;4.57;1.25;;;;;;;;;;5015417;28;20048;-22
2024/01/05 09:11:05;;;;;;;7.55;1.58;;;;;;;;;;5014855;28;20026;-23
2024/01/05 09:13:31;;;;;;;1.50;0.82;;;;;;;;;;5014878;28;20091;-23
2024/01/05 09:15:57;;;;;;;3.25;1.15;;;;;;;;;;5014923;28;20104;-22
2024/01/05 09:18:23;;;;;;;2.35;1.10;;;;;;;;;;5014936;28;20558;-22
2024/01/05 09:20:52;;;;;;;5.28;1.17;;;;;;;;;;5014800;28;20463;-22
2024/01/05 09:23:18;;;;;;;9.10;1.05;;;;;;;;;;5015076;28;20084;-23
2024/01/05 09:25:44;;;;;;;6.28;1.95;;;;;;;;;;4998262;28;20030;-22
2024/01/05 09:28:10;;;;;;;5.57;0.90;;;;;;;;;;4997524;28;20088;-23
2024/01/05 09:30:36;;;;;;;3.50;1.10;;;;;;;;;;5015026;28;20026;-22
2024/01/05 09:33:03;;;;;;;1.98;1.13;;;;;;;;;;5014641;28;20052;-23
2024/01/05 09:35:30;;;;;;;3.75;1.20;;;;;;;;;;5015094;28;20030;-23
2024/01/05 09:37:56;;;;;;;6.75;0.88;;;;;;;;;;5014724;28;20109;-23
2024/01/05 09:40:23;;;;;;;4.30;1.00;;;;;;;;;;5014564;28;20111;-24
2024/01/05 09:42:50;;;;;;;1.25;1.13;;;;;;;;;;5014568;28;20037;-23
2024/01/05 09:45:17;;;;;;;4.20;1.20;;;;;;;;;;5014605;28;20018;-23
2024/01/05 09:47:43;;;;;;;1.90;1.70;;;;;;;;;;5014174;28;20097;-22
2024/01/05 09:50:16;;;;;;;3.30;1.13;;;;;;;;;;5014232;28;20127;-22
2024/01/05 09:52:43;;;;;;;7.07;1.40;;;;;;;;;;5014490;28;20037;-25
2024/01/05 09:55:09;;;;;;;16.95;1.23;;;;;;;;;;5014272;28;20034;-23
2024/01/05 09:57:37;;;;;;;4.60;1.40;;;;;;;;;;5014146;28;20207;-23
2024/01/05 10:00:04;;;;;;;4.65;1.20;;;;;;;;;;5014077;28;20030;-22
2024/01/05 10:02:37;;;;;;;4.68;1.17;;;;;;;;;;5014100;28;20424;-23
2024/01/05 10:05:03;;;;;;;4.90;1.33;;;;;;;;;;4978402;28;20150;-21
2024/01/05 10:07:30;;;;;;;2.65;1.20;;;;;;;;;;4979071;28;20039;-24
2024/01/05 10:09:58;;;;;;;3.40;1.25;;;;;;;;;;4978969;28;20034;-22
2024/01/05 10:12:25;;;;;;;8.48;1.77;;;;;;;;;;4978776;28;20029;-23
2024/01/05 10:14:52;;;;;;;4.75;1.63;;;;;;;;;;4978842;28;20019;-24
2024/01/05 10:17:18;;;;;;;2.22;1.30;;;;;;;;;;4978824;28;20094;-24
2024/01/05 10:19:44;;;;;;;4.38;0.93;;;;;;;;;;4978881;28;20517;-22
2024/01/05 10:22:12;;;;;;;4.25;1.13;;;;;;;;;;4978574;28;20084;-22
2024/01/05 10:24:38;;;;;;;4.45;1.10;;;;;;;;;;4978699;28;20110;-22
2024/01/05 10:27:04;;;;;;;3.40;0.80;;;;;;;;;;4978677;28;20109;-24
2024/01/05 10:29:31;;;;;;;5.78;1.17;;;;;;;;;;4978961;28;20101;-22
2024/01/05 10:32:13;;;;;;;7.13;1.50;;;;;;;;;;4979025;28;20058;-25
2024/01/05 10:34:43;;;;;;;3.17;1.20;;;;;;;;;;4979055;28;20042;-23
2024/01/05 10:37:09;;;;;;;2.00;0.93;;;;;;;;;;4978910;28;20477;-23
2024/01/05 10:39:35;;;;;;;3.22;0.90;;;;;;;;;;4978669;28;20054;-22
2024/01/05 10:42:20;;;;;;;1.45;1.05;;;;;;;;;;4978495;28;20027;-22
2024/01/05 10:44:48;;;;;;;3.35;1.08;;;;;;;;;;4978584;28;20034;-23
2024/01/05 10:47:15;;;;;;;2.20;1.15;;;;;;;;;;4977541;28;20023;-23
2024/01/05 10:49:51;;;;;;;2.70;1.10;;;;;;;;;;4978475;28;20109;-24
2024/01/05 10:52:17;;;;;;;2.95;1.35;;;;;;;;;;4978305;28;20041;-21
2024/01/05 10:54:45;;;;;;;1.60;1.00;;;;;;;;;;4978398;28;20030;-22
2024/01/05 10:57:14;;;;;;;3.55;1.00;;;;;;;;;;4979039;28;20027;-23
2024/01/05 10:59:43;;;;;;;5.20;2.45;;;;;;;;;;4978567;28;20027;-24
2024/01/05 11:02:13;;;;;;;6.22;1.65;;;;;;;;;;4977972;28;20537;-21
2024/01/05 11:04:40;;;;;;;3.83;0.93;;;;;;;;;;5011760;28;20080;-23
2024/01/05 11:07:07;;;;;;;4.85;0.95;;;;;;;;;;5017160;28;20030;-23
2024/01/05 11:09:48;;;;;;;8.77;1.17;;;;;;;;;;5017070;28;20119;-25
2024/01/05 11:12:38;;;;;;;2.30;0.95;;;;;;;;;;5017392;28;20060;-23
2024/01/05 11:15:22;;;;;;;3.85;0.98;;;;;;;;;;5003454;28;20038;-23
2024/01/05 11:18:21;;;;;;;4.20;1.02;;;;;;;;;;5017280;28;20030;-23
2024/01/05 11:21:05;;;;;;;3.20;1.13;;;;;;;;;;4963631;28;20042;-23
2024/01/05 11:23:34;;;;;;;6.50;1.00;;;;;;;;;;5017145;28;20369;-22
2024/01/05 11:26:00;;;;;;;2.83;0.98;;;;;;;;;;5017270;28;20026;-23
2024/01/05 11:28:36;;;;;;;4.45;1.02;;;;;;;;;;5016795;28;20108;-23
2024/01/05 11:31:03;;;;;;;3.13;1.40;;;;;;;;;;5016871;28;20041;-24
2024/01/05 11:33:48;;;;;;;3.20;1.00;;;;;;;;;;5016359;28;20033;-23
2024/01/05 11:36:33;;;;;;;4.60;1.40;;;;;;;;;;5016523;28;20022;-22
2024/01/05 11:39:00;;;;;;;3.15;1.17;;;;;;;;;;5016606;28;20026;-23
2024/01/05 11:41:26;;;;;;;2.28;1.08;;;;;;;;;;5016319;28;20040;-24
2024/01/05 11:43:52;;;;;;;6.47;1.30;;;;;;;;;;5016489;28;20014;-21
2024/01/05 11:46:18;;;;;;;3.28;0.90;;;;;;;;;;5016439;28;20033;-23
2024/01/05 11:48:45;;;;;;;3.92;1.30;;;;;;;;;;5016367;28;20128;-23
2024/01/05 11:51:12;;;;;;;5.25;1.75;;;;;;;;;;5016382;28;20061;-22
2024/01/05 11:53:38;;;;;;;10.02;2.05;;;;;;;;;;5016476;28;20026;-25
2024/01/05 11:56:11;;;;;;;5.18;1.20;;;;;;;;;;5016206;28;20144;-23
2024/01/05 11:58:41;;;;;;;4.90;1.55;;;;;;;;;;5016168;28;20581;-22
2024/01/05 12:01:09;;;;;;;3.40;1.00;;;;;;;;;;5016048;28;20064;-25
2024/01/05 12:03:38;;;;;;;5.13;1.15;;;;;;;;;;5016045;28;20046;-22
2024/01/05 12:06:04;;;;;;;3.70;1.15;;;;;;;;;;5016006;28;20048;-20
2024/01/05 12:08:31;;;;;;;5.22;1.15;;;;;;;;;;5016348;28;20110;-22
2024/01/05 12:11:02;;;;;;;2.83;0.65;;;;;;;;;;5016061;28;20408;-23
2024/01/05 12:13:30;;;;;;;1.48;0.95;;;;;;;;;;5015984;28;20432;-24
2024/01/05 12:16:00;;;;;;;3.40;1.00;;;;;;;;;;5015974;28;20040;-23
2024/01/05 12:18:32;;;;;;;1.95;1.20;;;;;;;;;;5016139;28;20112;-25
2024/01/05 12:21:02;;;;;;;2.90;1.50;;;;;;;;;;5016011;28;20456;-22
2024/01/05 12:23:30;;;;;;;3.10;1.13;;;;;;;;;;5015988;28;20354;-23
2024/01/05 12:25:59;;;;;;;2.05;1.15;;;;;;;;;;5015919;28;20022;-23
2024/01/05 12:28:26;;;;;;;6.47;1.10;;;;;;;;;;5015739;28;20456;-22
2024/01/05 12:30:52;;;;;;;4.32;1.17;;;;;;;;;;4998432;28;20053;-24
2024/01/05 12:33:19;;;;;;;2.70;0.80;;;;;;;;;;5015520;28;20069;-23
2024/01/05 12:35:45;;;;;;;2.58;1.10;;;;;;;;;;5015911;28;20026;-24
2024/01/05 12:38:11;;;;;;;3.38;1.20;;;;;;;;;;5015517;28;20052;-24
2024/01/05 12:40:37;;;;;;;2.72;1.10;;;;;;;;;;5015748;28;20029;-23
2024/01/05 12:43:04;;;;;;;3.55;1.20;;;;;;;;;;5015295;28;20018;-23
2024/01/05 12:45:30;;;;;;;1.45;1.00;;;;;;;;;;5015420;28;20145;-23
2024/01/05 12:47:56;;;;;;;2.80;1.23;;;;;;;;;;5015694;28;20116;-23
2024/01/05 12:50:31;;;;;;;5.53;1.05;;;;;;;;;;5015563;28;20128;-23
2024/01/05 12:52:57;;;;;;;4.13;1.38;;;;;;;;;;5015465;28;20357;-23
2024/01/05 12:55:33;;;;;;;4.55;1.00;;;;;;;;;;5015413;28;20091;-22
2024/01/05 12:58:06;;;;;;;9.43;2.17;;;;;;;;;;5015073;28;20033;-22
2024/01/05 13:00:38;;;;;;;6.10;1.42;;;;;;;;;;5015338;28;20026;-23
2024/01/05 13:03:05;;;;;;;5.18;1.13;;;;;;;;;;5014701;28;20045;-22
2024/01/05 13:05:34;;;;;;;7.35;1.73;;;;;;;;;;5015427;28;20033;-23
2024/01/05 13:08:02;;;;;;;7.72;1.70;;;;;;;;;;5014911;28;20029;-23
2024/01/05 13:10:28;;;;;;;4.05;1.15;;;;;;;;;;5015084;28;20108;-23
2024/01/05 13:12:54;;;;;;;4.78;1.42;;;;;;;;;;5015318;28;20034;-23
2024/01/05 13:15:21;;;;;;;5.70;1.17;;;;;;;;;;5015154;28;20037;-22
2024/01/05 13:17:48;;;;;;;4.80;1.23;;;;;;;;;;5015133;28;20401;-23
2024/01/05 13:20:18;;;;;;;5.88;1.40;;;;;;;;;;5014729;28;20029;-22
2024/01/05 13:22:45;;;;;;;5.88;1.90;;;;;;;;;;5014728;28;20416;-22
2024/01/05 13:25:12;;;;;;;12.82;1.70;;;;;;;;;;5014811;28;20022;-22
2024/01/05 13:27:41;;;;;;;9.38;1.45;;;;;;;;;;5014825;28;20460;-23
2024/01/05 13:30:13;;;;;;;2.70;1.10;;;;;;;;;;5015174;28;20017;-24
2024/01/05 13:32:39;;;;;;;3.58;1.50;;;;;;;;;;5014413;28;20172;-23
2024/01/05 13:35:05;;;;;;;4.40;1.63;;;;;;;;;;5014884;28;20049;-23
2024/01/05 13:37:32;;;;;;;2.85;1.08;;;;;;;;;;5014801;28;20029;-23
2024/01/05 13:39:58;;;;;;;7.15;2.60;;;;;;;;;;5014198;28;20034;-23
2024/01/05 13:42:27;;;;;;;2.63;1.15;;;;;;;;;;5015034;28;20026;-23
2024/01/05 13:44:53;;;;;;;5.75;1.80;;;;;;;;;;5015444;28;20026;-23
2024/01/05 13:47:19;;;;;;;4.60;1.17;;;;;;;;;;5014584;28;20037;-23
2024/01/05 13:49:45;;;;;;;3.13;1.48;;;;;;;;;;5014870;28;20026;-24
2024/01/05 13:52:11;;;;;;;4.18;1.27;;;;;;;;;;5014917;28;20030;-23
2024/01/05 13:54:37;;;;;;;3.42;0.95;;;;;;;;;;5014593;28;20029;-26
2024/01/05 13:57:04;;;;;;;5.30;1.40;;;;;;;;;;5014588;28;20041;-24
2024/01/05 13:59:30;;;;;;;2.47;0.98;;;;;;;;;;5014813;28;20068;-23
2024/01/05 14:01:56;;;;;;;4.00;1.25;;;;;;;;;;5015107;28;20034;-23
2024/01/05 14:04:23;;;;;;;2.83;1.00;;;;;;;;;;5014368;28;20472;-23
2024/01/05 14:06:49;;;;;;;4.90;1.67;;;;;;;;;;5014709;28;20036;-23
2024/01/05 14:09:15;;;;;;;2.70;1.48;;;;;;;;;;5014703;28;20049;-22
2024/01/05 14:11:41;;;;;;;9.43;1.40;;;;;;;;;;5014585;28;20109;-23
2024/01/05 14:14:07;;;;;;;4.82;1.27;;;;;;;;;;5014339;28;20030;-23
2024/01/05 14:16:33;;;;;;;2.92;1.05;;;;;;;;;;5014318;28;20113;-22
2024/01/05 14:19:00;;;;;;;4.57;1.55;;;;;;;;;;5014316;28;20057;-22
2024/01/05 14:21:27;;;;;;;4.00;1.30;;;;;;;;;;5014132;28;20050;-23
2024/01/05 14:23:53;;;;;;;3.03;1.27;;;;;;;;;;5014163;28;20029;-23
2024/01/05 14:26:19;;;;;;;3.10;1.40;;;;;;;;;;4997069;28;20022;-22
2024/01/05 14:28:47;;;;;;;4.68;2.08;;;;;;;;;;5014941;28;20333;-22
2024/01/05 14:31:26;;;;;;;3.95;1.40;;;;;;;;;;5014608;28;20021;-23
2024/01/05 14:33:52;;;;;;;4.68;2.47;;;;;;;;;;5014112;28;20034;-22
2024/01/05 14:36:18;;;;;;;3.80;1.15;;;;;;;;;;5014136;28;20032;-22
2024/01/05 14:38:44;;;;;;;2.60;1.20;;;;;;;;;;5014364;28;20168;-23
2024/01/05 14:41:10;;;;;;;3.58;1.10;;;;;;;;;;5014324;28;20108;-22
2024/01/05 14:43:37;;;;;;;6.22;1.55;;;;;;;;;;5014125;28;20451;-22